Time;durP1;ratioP1;P1;durP2;ratioP2;P2;SDS_P1;SDS_P2;PMS_P1;PMS_P2;Temp;Humidity;BMP_temperature;BMP_pressure;BME280_temperature;BME280_humidity;BME280_pressure;Samples;Min_cycle;Max_cycle;Signal;HPM_P1;HPM_P2
2022/04/19 00:01:38;;;;;;;8.70;5.80;;;;;;;7.46;52.31;100007.98;105369;1281;22648;-75
2022/04/19 00:04:05;;;;;;;10.10;5.50;;;;;;;7.42;52.14;100009.20;105524;1281;23065;-77
2022/04/19 00:06:31;;;;;;;12.80;4.90;;;;;;;7.41;52.28;100008.69;104881;1287;22551;-75
2022/04/19 00:08:58;;;;;;;9.20;4.10;;;;;;;7.36;52.42;100008.52;104842;1287;24323;-75
2022/04/19 00:11:24;;;;;;;10.90;4.40;;;;;;;7.29;52.97;100006.27;104919;1284;25401;-74
2022/04/19 00:13:50;;;;;;;6.00;4.20;;;;;;;7.27;53.14;100003.98;104926;1285;25340;-76
2022/04/19 00:16:16;;;;;;;7.90;5.00;;;;;;;7.29;53.63;100003.46;105054;1284;24402;-80
2022/04/19 00:18:42;;;;;;;7.40;4.70;;;;;;;7.28;53.74;100002.77;104858;1285;26703;-83
2022/04/19 00:21:08;;;;;;;7.20;4.50;;;;;;;7.24;53.69;100004.68;105041;1285;25503;-81
2022/04/19 00:23:34;;;;;;;7.40;4.80;;;;;;;7.21;53.88;100004.35;105049;1284;25672;-82
2022/04/19 00:26:00;;;;;;;6.30;4.50;;;;;;;7.18;54.08;100000.15;105565;1281;22563;-81
2022/04/19 00:28:27;;;;;;;5.70;3.90;;;;;;;7.12;54.17;99999.98;105293;1287;25348;-78
2022/04/19 00:30:55;;;;;;;6.30;4.30;;;;;;;6.98;54.33;99997.18;105144;1287;24356;-76
2022/04/19 00:33:22;;;;;;;7.20;4.00;;;;;;;6.97;54.64;99999.11;105006;1287;22721;-73
2022/04/19 00:35:49;;;;;;;4.60;3.70;;;;;;;6.98;55.27;100002.09;104918;1287;23893;-82
2022/04/19 00:38:15;;;;;;;6.00;3.60;;;;;;;7.00;55.53;100004.19;104937;1288;23191;-79
2022/04/19 00:40:42;;;;;;;4.70;3.30;;;;;;;6.96;55.78;100005.77;104956;1287;23092;-80
2022/04/19 00:43:10;;;;;;;6.20;3.50;;;;;;;6.90;55.91;100003.85;105048;1287;24310;-78
2022/04/19 00:45:36;;;;;;;5.60;3.50;;;;;;;6.86;56.30;100003.33;105244;1287;22553;-79
2022/04/19 00:48:03;;;;;;;3.70;3.00;;;;;;;6.78;56.53;99999.30;106368;1281;22566;-78
2022/04/19 00:50:31;;;;;;;5.20;3.10;;;;;;;6.74;56.83;99994.74;106535;1281;22499;-78
2022/04/19 00:52:59;;;;;;;5.40;3.10;;;;;;;6.70;57.12;99997.89;106983;1281;22585;-74
2022/04/19 00:55:25;;;;;;;4.70;2.90;;;;;;;6.68;57.44;99991.94;106585;1281;24255;-82
2022/04/19 00:57:52;;;;;;;3.90;2.80;;;;;;;6.65;57.68;99984.59;106845;1281;22589;-80
2022/04/19 01:00:20;;;;;;;5.40;2.80;;;;;;;6.59;57.88;99984.75;107432;1281;22512;-80
2022/04/19 01:03:03;;;;;;;4.90;2.90;;;;;;;6.59;58.28;99985.28;107733;1281;22588;-80
2022/04/19 01:05:36;;;;;;;3.60;2.50;;;;;;;6.62;58.27;99981.96;108895;1281;22589;-84
2022/04/19 01:08:05;;;;;;;4.50;2.80;;;;;;;6.57;58.34;99980.04;108959;1281;22995;-82
2022/04/19 01:10:38;;;;;;;3.40;2.60;;;;;;;6.53;58.68;99975.83;108435;1281;25480;-80
2022/04/19 01:13:20;;;;;;;4.40;2.80;;;;;;;6.52;58.73;99971.98;107740;1281;22564;-81
2022/04/19 01:15:55;;;;;;;5.40;2.80;;;;;;;6.44;58.86;99973.73;107916;1281;22548;-81
2022/04/19 01:18:24;;;;;;;5.50;3.30;;;;;;;6.39;59.05;99971.96;108195;1281;22641;-80
2022/04/19 01:20:55;;;;;;;4.40;3.00;;;;;;;6.27;59.20;99966.70;107445;1281;23925;-81
2022/04/19 01:23:22;;;;;;;6.20;3.10;;;;;;;6.23;59.54;99965.48;106693;1281;22510;-79
2022/04/19 01:25:49;;;;;;;3.60;2.70;;;;;;;6.23;59.92;99966.00;105813;1281;25388;-78
2022/04/19 01:28:19;;;;;;;4.90;3.00;;;;;;;6.20;60.02;99960.40;105432;1281;24230;-78
2022/04/19 01:30:52;;;;;;;4.90;2.90;;;;;;;6.21;60.22;99960.77;105046;1284;25401;-78
2022/04/19 01:33:20;;;;;;;3.90;3.00;;;;;;;6.22;60.25;99963.55;104961;1287;25320;-81
2022/04/19 01:35:47;;;;;;;3.70;2.90;;;;;;;6.25;60.47;99959.54;104420;1291;24259;-79
2022/04/19 01:38:14;;;;;;;6.50;3.00;;;;;;;6.25;60.41;99960.41;104452;1290;25457;-80
2022/04/19 01:40:40;;;;;;;3.90;2.90;;;;;;;6.24;60.40;99956.03;104365;1291;22634;-80
2022/04/19 01:43:10;;;;;;;4.70;3.20;;;;;;;6.27;60.82;99956.92;104496;1290;25414;-76
2022/04/19 01:45:48;;;;;;;6.80;3.70;;;;;;;6.33;60.84;99953.42;104322;1290;25408;-81
2022/04/19 01:48:20;;;;;;;5.50;3.30;;;;;;;6.37;60.93;99951.85;104554;1287;25321;-78
2022/04/19 01:50:46;;;;;;;8.10;3.80;;;;;;;6.41;60.75;99959.02;104740;1287;22576;-80
2022/04/19 01:53:14;;;;;;;5.70;3.60;;;;;;;6.42;60.58;99960.78;104993;1284;25395;-79
2022/04/19 01:55:42;;;;;;;4.30;3.50;;;;;;;6.46;60.79;99964.29;105509;1281;25335;-77
2022/04/19 01:58:28;;;;;;;4.90;3.60;;;;;;;6.48;61.11;99961.14;105349;1282;25283;-76
2022/04/19 02:00:54;;;;;;;6.60;3.70;;;;;;;6.48;61.18;99962.19;105384;1281;22652;-75
2022/04/19 02:03:21;;;;;;;6.00;4.10;;;;;;;6.48;61.15;99963.06;105372;1284;22585;-77
2022/04/19 02:05:51;;;;;;;6.10;3.70;;;;;;;6.48;60.99;99962.02;105611;1281;25475;-75
2022/04/19 02:08:17;;;;;;;6.50;3.20;;;;;;;6.41;61.04;99958.86;105442;1281;22579;-75
2022/04/19 02:10:45;;;;;;;6.30;3.50;;;;;;;6.41;61.00;99959.39;105373;1281;25405;-76
2022/04/19 02:13:13;;;;;;;5.40;4.00;;;;;;;6.37;60.87;99957.98;105585;1281;23966;-77
2022/04/19 02:16:06;;;;;;;3.90;3.50;;;;;;;6.33;60.87;99957.63;105544;1281;24254;-76
2022/04/19 02:18:32;;;;;;;5.30;3.90;;;;;;;6.28;60.94;99956.39;105923;1281;25738;-79
2022/04/19 02:21:00;;;;;;;6.20;3.50;;;;;;;6.23;60.96;99956.73;105589;1281;23831;-78
2022/04/19 02:23:27;;;;;;;6.60;4.00;;;;;;;6.10;60.85;99949.52;105783;1284;22531;-76
2022/04/19 02:25:55;;;;;;;6.30;4.20;;;;;;;6.06;61.27;99951.11;107050;1281;22582;-78
2022/04/19 02:28:22;;;;;;;7.90;4.40;;;;;;;6.10;61.48;99952.52;105750;1281;22574;-86
2022/04/19 02:31:02;;;;;;;4.40;3.70;;;;;;;6.09;61.61;99949.52;105572;1281;22682;-83
2022/04/19 02:33:29;;;;;;;6.90;4.30;;;;;;;6.06;61.76;99944.27;105297;1283;25418;-83
2022/04/19 02:35:56;;;;;;;5.40;3.90;;;;;;;6.09;61.60;99948.66;105037;1284;24397;-81
2022/04/19 02:38:23;;;;;;;9.20;4.20;;;;;;;6.01;61.61;99948.44;105054;1281;22547;-83
2022/04/19 02:40:49;;;;;;;4.70;3.90;;;;;;;5.99;61.83;99946.16;105090;1281;22738;-82
2022/04/19 02:43:16;;;;;;;5.60;3.60;;;;;;;6.01;62.15;99947.92;105166;1281;25337;-81
2022/04/19 02:45:43;;;;;;;3.90;3.20;;;;;;;6.01;62.02;99948.62;105250;1284;22675;-81
2022/04/19 02:48:11;;;;;;;4.40;3.20;;;;;;;5.99;61.97;99948.79;105471;1281;24943;-79
2022/04/19 02:50:45;;;;;;;5.00;3.50;;;;;;;5.97;61.94;99942.66;105648;1281;22579;-81
2022/04/19 02:53:12;;;;;;;4.90;3.10;;;;;;;5.93;62.02;99944.21;105493;1281;26539;-79
2022/04/19 02:55:40;;;;;;;5.60;3.50;;;;;;;5.96;62.23;99938.80;105318;1281;22564;-78
2022/04/19 02:58:07;;;;;;;4.30;3.40;;;;;;;5.99;62.23;99939.00;104998;1281;22547;-79
2022/04/19 03:00:36;;;;;;;5.70;3.00;;;;;;;5.98;62.35;99937.94;105165;1284;22550;-76
2022/04/19 03:03:03;;;;;;;5.20;3.60;;;;;;;6.00;62.30;99937.77;105118;1284;24291;-78
2022/04/19 03:05:33;;;;;;;3.80;2.90;;;;;;;6.03;62.31;99936.21;104991;1284;22658;-79
2022/04/19 03:07:59;;;;;;;4.40;2.60;;;;;;;6.01;62.36;99936.02;105003;1284;22555;-79
2022/04/19 03:10:26;;;;;;;3.80;2.40;;;;;;;5.95;62.35;99938.63;105414;1284;22534;-84
2022/04/19 03:12:52;;;;;;;4.20;2.90;;;;;;;5.92;62.35;99941.41;104843;1287;25369;-77
2022/04/19 03:15:20;;;;;;;3.60;2.60;;;;;;;5.85;62.13;99941.23;105147;1281;22583;-80
2022/04/19 03:17:48;;;;;;;5.40;3.10;;;;;;;5.74;62.35;99945.02;105148;1283;22563;-79
2022/04/19 03:20:16;;;;;;;3.00;2.50;;;;;;;5.71;62.41;99947.65;105080;1282;22615;-79
2022/04/19 03:28:17;;;;;;;3.50;2.20;;;;;;;5.63;62.91;99951.28;105140;1284;24246;-80
2022/04/19 03:30:43;;;;;;;2.50;2.10;;;;;;;5.64;63.00;99950.24;105205;1281;25377;-79
2022/04/19 03:33:11;;;;;;;2.60;2.30;;;;;;;5.65;62.86;99955.83;105151;1281;22598;-79
2022/04/19 03:35:38;;;;;;;3.10;2.00;;;;;;;5.60;62.69;99951.80;105305;1284;22741;-82
2022/04/19 03:38:05;;;;;;;2.40;1.90;;;;;;;5.52;62.54;99954.73;105154;1281;24100;-82
2022/04/19 03:40:32;;;;;;;2.30;1.80;;;;;;;5.47;62.80;99955.92;105327;1281;22674;-83
2022/04/19 03:43:02;;;;;;;3.90;1.90;;;;;;;5.48;62.96;99953.13;105297;1281;25393;-82
2022/04/19 03:45:29;;;;;;;2.30;2.10;;;;;;;5.40;62.63;99957.66;105456;1281;24262;-85
2022/04/19 03:47:55;;;;;;;1.70;1.40;;;;;;;5.35;62.94;99958.14;105429;1284;23273;-76
2022/04/19 03:50:22;;;;;;;2.40;1.70;;;;;;;5.36;63.00;99962.16;105465;1281;23961;-74
2022/04/19 03:52:50;;;;;;;1.70;1.60;;;;;;;5.42;62.99;99963.95;105458;1281;24246;-80
2022/04/19 03:55:17;;;;;;;1.70;1.60;;;;;;;5.44;62.89;99960.98;105177;1281;22572;-76
2022/04/19 03:57:44;;;;;;;2.30;1.80;;;;;;;5.42;62.86;99960.98;105202;1281;22686;-77
2022/04/19 04:00:11;;;;;;;2.00;1.60;;;;;;;5.43;62.88;99962.02;105428;1284;25280;-76
2022/04/19 04:02:44;;;;;;;2.90;1.90;;;;;;;5.44;63.05;99964.64;105259;1281;22573;-77
2022/04/19 04:05:18;;;;;;;2.50;2.30;;;;;;;5.49;63.02;99967.29;105360;1281;22635;-73
2022/04/19 04:08:10;;;;;;;2.70;2.10;;;;;;;5.52;62.94;99969.74;105614;1284;22531;-77
2022/04/19 04:11:09;;;;;;;2.50;2.30;;;;;;;5.55;62.91;99972.56;105683;1282;22575;-77
2022/04/19 04:13:40;;;;;;;2.60;2.40;;;;;;;5.57;62.83;99974.49;105440;1281;22571;-78
2022/04/19 04:20:27;;;;;;;2.40;2.20;;;;;;;5.53;62.92;99983.20;105485;1281;22656;-81
2022/04/19 04:22:53;;;;;;;2.50;2.20;;;;;;;5.56;62.89;99988.64;105587;1281;24199;-79
2022/04/19 04:25:21;;;;;;;3.30;2.30;;;;;;;5.57;62.84;99989.17;105455;1282;22568;-77
2022/04/19 04:27:47;;;;;;;2.50;2.20;;;;;;;5.58;62.81;99995.46;105337;1282;24557;-77
2022/04/19 04:30:14;;;;;;;2.80;2.10;;;;;;;5.57;62.71;99995.64;105285;1281;22563;-77
2022/04/19 04:32:47;;;;;;;2.40;2.20;;;;;;;5.56;62.66;99999.46;105290;1287;22603;-76
2022/04/19 04:35:13;;;;;;;3.30;2.30;;;;;;;5.52;62.63;100004.16;105404;1281;24291;-77
2022/04/19 04:37:39;;;;;;;2.50;2.20;;;;;;;5.45;62.91;100008.14;105159;1287;23198;-77
2022/04/19 04:40:06;;;;;;;3.30;2.20;;;;;;;5.43;62.91;100007.77;104978;1287;24159;-78
2022/04/19 04:42:46;;;;;;;2.70;2.30;;;;;;;5.50;62.94;100010.78;105007;1287;22599;-79
2022/04/19 04:45:12;;;;;;;2.20;1.90;;;;;;;5.50;62.64;100007.29;104871;1287;22558;-79
2022/04/19 04:50:26;;;;;;;2.30;2.10;;;;;;;5.53;62.66;100016.56;104889;1287;24312;-77
2022/04/19 04:52:53;;;;;;;2.00;1.70;;;;;;;5.57;62.74;100022.70;104924;1287;22580;-77
2022/04/19 04:55:20;;;;;;;2.00;1.80;;;;;;;5.57;62.58;100022.36;104800;1281;22752;-78
2022/04/19 04:57:46;;;;;;;2.50;2.00;;;;;;;5.59;62.44;100029.19;105284;1281;23980;-79
2022/04/19 05:00:14;;;;;;;3.50;2.30;;;;;;;5.61;62.40;100030.05;105301;1281;24861;-80
2022/04/19 05:02:49;;;;;;;2.30;1.70;;;;;;;5.60;62.24;100033.20;105540;1281;25408;-77
2022/04/19 05:05:15;;;;;;;2.40;2.00;;;;;;;5.62;62.23;100036.35;105274;1281;23036;-79
2022/04/19 05:07:42;;;;;;;2.70;2.20;;;;;;;5.58;62.03;100036.16;105323;1281;333472;-77
2022/04/19 05:10:09;;;;;;;3.90;2.30;;;;;;;5.50;62.00;100040.30;105402;1281;22614;-77
2022/04/19 05:12:36;;;;;;;2.50;2.30;;;;;;;5.41;62.16;100035.19;105667;1281;22564;-85
2022/04/19 05:15:04;;;;;;;2.70;2.50;;;;;;;5.41;62.16;100036.93;105562;1281;24637;-84
2022/04/19 05:17:34;;;;;;;2.70;2.50;;;;;;;5.33;62.25;100036.54;105321;1281;22814;-80
2022/04/19 05:20:00;;;;;;;2.40;2.20;;;;;;;5.30;62.39;100036.34;105565;1281;22575;-81
2022/04/19 05:22:27;;;;;;;3.20;2.80;;;;;;;5.28;62.44;100040.33;105533;1281;22575;-82
2022/04/19 05:24:53;;;;;;;3.00;2.80;;;;;;;5.29;62.46;100041.91;106342;1281;22570;-82
2022/04/19 05:27:20;;;;;;;3.10;2.80;;;;;;;5.34;62.37;100045.09;106761;1281;22663;-81
2022/04/19 05:29:47;;;;;;;2.80;2.60;;;;;;;5.35;62.27;100047.73;106102;1281;22610;-82
2022/04/19 05:32:13;;;;;;;3.90;2.80;;;;;;;5.38;62.12;100051.93;105642;1284;24689;-82
2022/04/19 05:34:39;;;;;;;3.10;2.80;;;;;;;5.38;61.93;100056.65;106132;1288;23548;-80
2022/04/19 05:37:07;;;;;;;3.10;2.80;;;;;;;5.39;61.93;100061.02;106002;1287;25427;-81
2022/04/19 05:39:33;;;;;;;5.40;3.20;;;;;;;5.37;61.88;100062.94;105441;1290;25388;-81
2022/04/19 05:42:00;;;;;;;2.90;2.70;;;;;;;5.38;61.77;100070.79;105144;1284;25500;-85
2022/04/19 05:44:27;;;;;;;3.30;3.00;;;;;;;5.40;61.70;100068.36;104987;1287;22640;-81
2022/04/19 05:46:53;;;;;;;3.50;3.20;;;;;;;5.40;61.52;100068.02;105092;1287;25389;-89
2022/04/19 05:49:19;;;;;;;4.30;3.50;;;;;;;5.36;61.56;100076.72;105474;1284;25539;-82
2022/04/19 05:51:49;;;;;;;4.10;3.30;;;;;;;5.35;61.60;100079.52;105175;1287;22537;-81
2022/04/19 05:54:15;;;;;;;4.10;3.70;;;;;;;5.35;61.58;100081.25;104981;1284;25397;-78
2022/04/19 06:05:19;;;;;;;4.10;3.60;;;;;;;5.41;61.80;100090.20;105366;1281;22697;-81
2022/04/19 06:07:47;;;;;;;3.70;3.40;;;;;;;5.43;61.94;100094.58;105432;1281;24307;-81
2022/04/19 06:10:15;;;;;;;4.10;3.70;;;;;;;5.42;61.88;100094.75;105628;1281;22695;-84
2022/04/19 06:12:42;;;;;;;5.40;3.80;;;;;;;5.42;61.95;100098.24;105102;1281;22547;-80
2022/04/19 06:15:10;;;;;;;3.40;3.10;;;;;;;5.46;62.04;100102.29;105264;1281;22563;-78
2022/04/19 06:17:38;;;;;;;3.10;2.80;;;;;;;5.48;62.09;100105.96;105303;1281;22556;-80
2022/04/19 06:20:10;;;;;;;3.30;3.00;;;;;;;5.53;62.04;100104.08;105411;1282;22733;-82
2022/04/19 06:22:39;;;;;;;3.50;3.00;;;;;;;5.62;61.79;100104.67;105501;1281;22559;-81
2022/04/19 06:25:11;;;;;;;4.40;2.40;;;;;;;5.67;61.49;100101.03;105499;1281;25383;-81
2022/04/19 06:27:37;;;;;;;5.80;2.80;;;;;;;5.68;61.25;100109.60;105420;1284;22548;-82
2022/04/19 06:30:04;;;;;;;3.10;2.70;;;;;;;5.69;61.26;100106.27;105592;1281;22575;-82
2022/04/19 06:32:31;;;;;;;4.10;2.60;;;;;;;5.71;61.09;100108.38;105185;1282;25274;-81
2022/04/19 06:34:58;;;;;;;5.70;2.90;;;;;;;5.73;61.17;100110.14;105596;1281;25518;-81
2022/04/19 06:37:26;;;;;;;2.80;2.60;;;;;;;5.72;61.03;100114.33;105131;1281;22562;-80
2022/04/19 06:40:04;;;;;;;2.80;2.60;;;;;;;5.69;61.12;100116.05;105530;1284;22705;-81
2022/04/19 06:42:32;;;;;;;3.10;2.80;;;;;;;5.70;61.11;100118.17;105308;1281;24275;-84
2022/04/19 06:45:13;;;;;;;5.40;3.20;;;;;;;5.73;61.06;100121.85;105411;1281;22657;-83
2022/04/19 06:47:40;;;;;;;4.30;3.00;;;;;;;5.77;60.89;100124.16;105473;1281;26637;-81
2022/04/19 06:50:07;;;;;;;3.10;2.90;;;;;;;5.78;60.74;100125.38;105669;1281;22583;-79
2022/04/19 06:52:34;;;;;;;3.20;2.90;;;;;;;5.82;60.68;100133.62;105743;1281;24188;-81
2022/04/19 06:55:01;;;;;;;3.40;2.70;;;;;;;5.83;60.65;100127.34;106008;1281;22550;-80
2022/04/19 06:57:28;;;;;;;3.00;2.80;;;;;;;5.87;60.33;100134.70;105505;1281;22587;-81
2022/04/19 06:59:55;;;;;;;2.80;2.60;;;;;;;5.86;60.25;100139.25;106605;1281;25285;-80
2022/04/19 07:02:21;;;;;;;6.70;5.00;;;;;;;5.80;60.08;100141.30;106778;1281;22666;-80
2022/04/19 07:05:08;;;;;;;3.20;2.90;;;;;;;5.83;60.05;100152.69;106743;1281;23890;-76
2022/04/19 07:07:34;;;;;;;2.60;2.40;;;;;;;5.83;60.15;100157.56;108311;1281;25141;-77
2022/04/19 07:10:01;;;;;;;4.10;2.90;;;;;;;5.85;60.07;100160.73;108305;1281;22634;-88
2022/04/19 07:12:28;;;;;;;4.90;2.90;;;;;;;5.88;59.97;100160.75;108854;1280;22573;-80
2022/04/19 07:15:11;;;;;;;3.30;2.70;;;;;;;5.90;59.94;100160.77;108584;1281;22657;-85
2022/04/19 07:17:45;;;;;;;3.00;2.80;;;;;;;5.97;59.83;100165.16;108952;1281;22791;-80
2022/04/19 07:28:31;;;;;;;2.80;2.60;;;;;;;6.30;59.19;100173.60;108664;1281;22589;-84
2022/04/19 07:30:58;;;;;;;2.90;2.70;;;;;;;6.38;58.97;100176.97;108813;1281;22626;-79
2022/04/19 07:37:15;;;;;;;3.20;2.50;;;;;;;6.59;58.42;100182.47;105600;1281;23101;-79
2022/04/19 07:39:41;;;;;;;3.00;2.80;;;;;;;6.61;58.06;100184.59;105424;1284;22695;-77
2022/04/19 07:42:08;;;;;;;2.70;2.40;;;;;;;6.64;57.82;100186.17;105807;1281;23931;-80
2022/04/19 07:44:34;;;;;;;2.90;2.60;;;;;;;6.68;57.62;100187.40;105470;1281;22566;-80
2022/04/19 07:47:00;;;;;;;3.10;2.80;;;;;;;6.67;57.36;100184.95;105223;1281;22670;-85
2022/04/19 07:53:38;;;;;;;2.60;2.30;;;;;;;6.68;57.33;100188.46;105885;1281;22644;-82
2022/04/19 07:56:05;;;;;;;4.50;2.80;;;;;;;6.69;57.35;100194.94;105393;1281;22991;-80
2022/04/19 07:58:32;;;;;;;3.50;2.90;;;;;;;6.72;57.24;100193.73;105177;1281;22685;-80
2022/04/19 08:01:00;;;;;;;2.60;2.40;;;;;;;6.73;57.22;100198.80;105257;1281;22576;-78
2022/04/19 08:03:26;;;;;;;2.90;2.60;;;;;;;6.74;57.09;100201.08;105236;1281;22548;-77
2022/04/19 08:14:09;;;;;;;6.20;3.00;;;;;;;6.59;57.10;100208.89;107715;1279;22573;-89
2022/04/19 08:16:36;;;;;;;3.20;2.60;;;;;;;6.61;57.18;100213.81;105503;1284;24278;-78
2022/04/19 08:19:02;;;;;;;3.40;3.10;;;;;;;6.64;57.18;100215.92;105153;1284;22893;-81
2022/04/19 08:21:28;;;;;;;3.20;3.00;;;;;;;6.71;57.05;100220.52;104750;1290;24257;-78
2022/04/19 08:23:55;;;;;;;3.30;3.00;;;;;;;6.77;56.88;100224.20;104647;1290;23310;-78
2022/04/19 08:31:06;;;;;;;2.70;2.50;;;;;;;6.78;56.45;100228.05;104514;1290;25591;-81
2022/04/19 08:37:58;;;;;;;3.00;2.50;;;;;;;6.74;56.39;100228.74;105672;1287;22604;-78
2022/04/19 08:40:50;;;;;;;3.00;2.80;;;;;;;6.70;56.30;100232.40;106457;1281;22502;-81
2022/04/19 08:43:59;;;;;;;4.00;2.60;;;;;;;6.73;56.64;100232.41;106603;1281;22668;-78
2022/04/19 08:59:59;;;;;;;3.50;3.20;;;;;;;7.20;55.80;100230.98;106191;1280;22616;-80
2022/04/19 09:03:16;;;;;;;3.30;3.00;;;;;;;7.29;55.81;100230.48;105549;1281;22568;-78
2022/04/19 09:06:51;;;;;;;3.10;2.80;;;;;;;7.43;55.83;100230.48;105647;1279;22551;-78
2022/04/19 09:09:22;;;;;;;3.50;2.50;;;;;;;7.54;55.59;100234.53;105575;1281;26434;-87
2022/04/19 09:11:49;;;;;;;2.90;2.70;;;;;;;7.61;55.05;100237.34;105592;1281;22595;-79
2022/04/19 09:14:15;;;;;;;3.60;2.60;;;;;;;7.64;54.99;100239.98;105486;1281;22617;-79
2022/04/19 09:16:42;;;;;;;3.00;2.70;;;;;;;7.72;54.65;100239.45;105199;1281;25497;-77
2022/04/19 09:19:08;;;;;;;3.30;3.00;;;;;;;7.71;54.52;100236.65;105717;1279;25297;-79
2022/04/19 09:21:39;;;;;;;3.80;2.60;;;;;;;7.75;54.63;100239.63;105375;1281;22581;-80
2022/04/19 09:24:26;;;;;;;3.50;3.20;;;;;;;7.77;54.02;100241.38;105559;1279;22577;-77
2022/04/19 09:26:53;;;;;;;4.40;2.80;;;;;;;7.79;54.11;100239.80;105588;1279;25532;-83
2022/04/19 09:29:25;;;;;;;4.10;2.70;;;;;;;7.77;53.73;100239.45;105619;1281;22929;-80
2022/04/19 09:31:54;;;;;;;3.70;2.80;;;;;;;7.79;53.58;100240.15;105736;1281;22840;-80
2022/04/19 09:34:29;;;;;;;2.80;2.60;;;;;;;7.86;53.67;100241.55;105343;1281;22583;-80
2022/04/19 09:37:10;;;;;;;2.70;2.50;;;;;;;7.88;53.49;100241.55;105641;1281;23965;-77
2022/04/19 09:39:38;;;;;;;3.00;2.60;;;;;;;7.91;53.20;100244.19;105363;1281;22570;-82
2022/04/19 09:42:16;;;;;;;2.80;2.60;;;;;;;7.94;53.02;100250.32;105677;1281;22555;-81
2022/04/19 09:44:50;;;;;;;2.50;2.30;;;;;;;7.97;52.76;100251.20;105739;1279;24249;-81
2022/04/19 09:51:31;;;;;;;3.50;3.10;;;;;;;7.97;52.40;100258.03;105917;1279;22592;-79
2022/04/19 09:53:57;;;;;;;2.90;2.70;;;;;;;7.90;52.41;100260.32;105738;1279;25275;-78
2022/04/19 09:56:23;;;;;;;3.50;3.20;;;;;;;7.89;52.39;100263.47;105585;1279;25451;-78
2022/04/19 09:59:15;;;;;;;3.90;3.10;;;;;;;7.87;52.29;100264.52;105752;1278;22538;-79
2022/04/19 10:10:02;;;;;;;3.70;2.90;;;;;;;7.85;52.29;100266.97;105560;1279;22552;-79
2022/04/19 10:13:09;;;;;;;3.10;2.70;;;;;;;7.83;52.33;100274.34;105695;1278;25481;-89
2022/04/19 10:15:52;;;;;;;4.00;2.50;;;;;;;7.81;52.00;100274.16;105987;1279;25466;-81
2022/04/19 10:18:19;;;;;;;2.70;2.50;;;;;;;7.80;51.71;100275.91;105935;1277;22572;-86
2022/04/19 10:20:55;;;;;;;3.70;2.50;;;;;;;7.79;51.85;100273.81;106124;1278;24394;-77
2022/04/19 10:23:32;;;;;;;;;;;;;;;7.78;51.48;100275.74;105772;1278;23953;-78
2022/04/19 10:26:15;;;;;;;3.50;2.80;;;;;;;7.83;51.47;100275.21;105595;1278;22566;-80
2022/04/19 10:28:42;;;;;;;3.10;2.80;;;;;;;7.86;51.59;100278.54;105846;1278;25168;-84
2022/04/19 10:31:11;;;;;;;2.90;2.60;;;;;;;7.80;51.45;100269.95;105292;1279;25487;-77
2022/04/19 10:33:53;;;;;;;3.90;3.20;;;;;;;7.73;51.53;100278.89;105869;1279;23232;-79
2022/04/19 10:36:37;;;;;;;5.00;3.10;;;;;;;7.67;51.82;100282.91;105620;1279;22593;-84
2022/04/19 10:39:13;;;;;;;3.60;2.90;;;;;;;7.68;52.03;100277.66;105649;1279;22867;-77
2022/04/19 10:41:52;;;;;;;3.80;3.30;;;;;;;7.78;52.04;100279.59;105836;1278;23973;-80
2022/04/19 10:44:25;;;;;;;3.80;3.10;;;;;;;7.83;51.74;100283.45;105981;1277;22555;-81
2022/04/19 10:47:02;;;;;;;4.10;3.40;;;;;;;7.86;51.66;100278.37;105921;1277;22852;-77
2022/04/19 10:49:29;;;;;;;3.80;3.50;;;;;;;7.92;51.31;100278.02;105730;1279;26072;-79
2022/04/19 10:51:59;;;;;;;5.00;2.90;;;;;;;7.94;51.25;100283.28;105614;1279;22879;-80
2022/04/19 10:55:02;;;;;;;3.20;2.90;;;;;;;7.90;51.18;100277.85;105511;1279;22718;-79
2022/04/19 11:00:59;;;;;;;4.00;3.20;;;;;;;8.07;51.21;100272.58;105881;1279;22604;-78
2022/04/19 11:03:29;;;;;;;3.40;3.10;;;;;;;8.20;51.03;100282.56;105494;1279;23384;-81
2022/04/19 11:05:57;;;;;;;3.60;3.30;;;;;;;8.33;50.93;100282.20;105566;1281;25489;-80
2022/04/19 11:08:26;;;;;;;6.30;3.40;;;;;;;8.45;50.59;100282.00;105653;1279;25227;-76
2022/04/19 11:11:20;;;;;;;6.40;3.30;;;;;;;8.52;50.44;100280.08;105886;1278;24289;-80
2022/04/19 11:14:17;;;;;;;4.30;3.40;;;;;;;8.67;50.20;100280.39;105830;1279;22554;-86
2022/04/19 11:16:48;;;;;;;3.20;2.90;;;;;;;8.72;50.35;100277.77;105548;1279;25529;-78
2022/04/19 11:19:18;;;;;;;3.40;3.10;;;;;;;8.78;50.20;100282.48;105621;1279;22741;-78
2022/04/19 11:21:58;;;;;;;4.60;3.50;;;;;;;8.83;49.89;100281.75;105602;1279;25338;-80
2022/04/19 11:25:03;;;;;;;3.80;3.20;;;;;;;8.93;50.06;100276.44;105703;1279;22882;-81
2022/04/19 11:28:01;;;;;;;4.10;3.70;;;;;;;9.04;49.86;100274.30;105104;1283;22609;-79
2022/04/19 11:30:28;;;;;;;3.60;3.30;;;;;;;9.14;49.55;100275.12;105122;1284;25844;-80
2022/04/19 11:32:59;;;;;;;3.40;3.10;;;;;;;9.21;49.31;100276.86;104736;1284;23189;-79
2022/04/19 11:35:27;;;;;;;4.20;3.40;;;;;;;9.28;49.19;100269.25;105199;1284;24076;-81
2022/04/19 11:37:53;;;;;;;3.60;3.30;;;;;;;9.35;49.01;100268.14;105111;1284;22866;-78
2022/04/19 11:48:50;;;;;;;3.70;3.40;;;;;;;9.57;47.96;100266.59;107215;1278;22624;-83
2022/04/19 11:51:20;;;;;;;3.40;3.10;;;;;;;9.61;47.95;100266.41;105855;1279;25392;-80
2022/04/19 11:53:47;;;;;;;4.30;3.20;;;;;;;9.64;47.60;100264.28;107187;1279;25282;-79
2022/04/19 11:56:14;;;;;;;4.00;3.60;;;;;;;9.67;47.45;100267.95;108705;1278;22573;-84
2022/04/19 11:58:46;;;;;;;3.40;3.10;;;;;;;9.72;47.46;100267.90;107831;1278;24257;-78
2022/04/19 12:01:14;;;;;;;6.70;3.50;;;;;;;9.78;47.17;100265.92;105987;1278;22559;-80
2022/04/19 12:03:42;;;;;;;7.80;3.40;;;;;;;9.77;46.98;100266.45;106058;1278;24280;-80
2022/04/19 12:06:10;;;;;;;4.10;3.70;;;;;;;9.83;46.96;100264.31;105674;1279;25936;-80
2022/04/19 12:08:41;;;;;;;5.00;3.80;;;;;;;9.90;47.11;100261.61;105734;1279;23026;-80
2022/04/19 12:11:15;;;;;;;4.20;3.80;;;;;;;9.93;46.89;100257.35;105795;1278;25388;-79
2022/04/19 12:13:52;;;;;;;4.80;3.60;;;;;;;10.05;46.44;100260.78;105595;1279;24235;-79
2022/04/19 12:16:33;;;;;;;4.60;4.10;;;;;;;10.10;46.45;100260.20;105451;1279;22575;-80
2022/04/19 12:19:08;;;;;;;4.20;3.80;;;;;;;10.15;46.41;100261.21;105439;1279;24238;-82
2022/04/19 12:21:43;;;;;;;4.10;3.70;;;;;;;10.24;46.42;100257.42;105873;1279;22704;-78
2022/04/19 12:24:19;;;;;;;4.10;3.70;;;;;;;10.30;46.37;100257.90;105694;1279;22551;-77
2022/04/19 12:26:49;;;;;;;5.10;4.20;;;;;;;10.41;46.14;100258.66;105771;1281;25388;-78
2022/04/19 12:29:16;;;;;;;4.70;4.30;;;;;;;10.57;45.97;100250.26;105953;1279;22661;-77
2022/04/19 12:31:47;;;;;;;4.60;4.20;;;;;;;10.63;45.34;100248.77;105967;1279;25400;-76
2022/04/19 12:34:15;;;;;;;4.80;4.40;;;;;;;10.64;45.22;100248.40;105482;1279;24702;-80
2022/04/19 12:36:47;;;;;;;7.80;4.60;;;;;;;10.65;45.03;100244.69;106122;1279;23062;-87
2022/04/19 12:39:23;;;;;;;6.60;4.60;;;;;;;10.60;45.05;100247.75;105752;1278;22592;-89
2022/04/19 12:41:54;;;;;;;6.00;3.90;;;;;;;10.60;44.94;100247.75;105670;1278;22635;-82
2022/04/19 12:44:20;;;;;;;3.40;3.10;;;;;;;10.59;44.75;100241.61;105716;1278;22578;-81
2022/04/19 12:46:51;;;;;;;7.90;3.70;;;;;;;10.55;44.25;100244.46;105717;1279;22589;-80
2022/04/19 12:49:23;;;;;;;3.90;3.40;;;;;;;10.48;44.16;100248.94;105793;1279;23008;-80
2022/04/19 12:52:07;;;;;;;3.70;3.40;;;;;;;10.40;44.30;100249.70;105911;1278;22880;-81
2022/04/19 12:54:38;;;;;;;5.30;3.40;;;;;;;10.42;44.35;100251.61;105917;1278;25272;-79
2022/04/19 12:57:17;;;;;;;5.60;4.00;;;;;;;10.46;44.24;100246.85;106031;1279;22603;-77
2022/04/19 12:59:44;;;;;;;4.60;3.20;;;;;;;10.36;43.86;100249.04;106865;1279;22557;-77
2022/04/19 13:02:16;;;;;;;4.50;3.60;;;;;;;10.29;43.99;100249.64;106628;1279;22504;-78
2022/04/19 13:04:43;;;;;;;3.30;3.00;;;;;;;10.34;44.23;100250.11;106832;1279;22759;-81
2022/04/19 13:12:40;;;;;;;3.70;3.20;;;;;;;10.53;44.11;100243.25;107207;1279;25281;-82
2022/04/19 13:15:07;;;;;;;4.30;3.40;;;;;;;10.62;43.90;100244.91;107917;1279;22555;-81
2022/04/19 13:17:37;;;;;;;3.20;2.90;;;;;;;10.68;43.31;100244.32;108224;1281;22726;-81
2022/04/19 13:20:06;;;;;;;4.50;2.80;;;;;;;10.62;43.30;100241.04;107969;1281;22551;-81
2022/04/19 13:22:50;;;;;;;3.60;3.30;;;;;;;10.77;42.98;100242.27;108913;1280;22704;-82